createdAt,value
2023-04-17T00:01:18.447Z,32.60
2023-04-17T00:03:47.264Z,31.50
2023-04-17T00:06:16.382Z,31.03
2023-04-17T00:08:44.586Z,31.20
2023-04-17T00:11:12.705Z,34.97
2023-04-17T00:13:41.023Z,31.00
2023-04-17T00:16:10.755Z,34.40
2023-04-17T00:18:40.278Z,33.40
2023-04-17T00:21:08.421Z,33.37
2023-04-17T00:23:36.797Z,31.93
2023-04-17T00:26:04.994Z,30.33
2023-04-17T00:28:34.275Z,31.67
2023-04-17T00:31:02.343Z,32.20
2023-04-17T00:33:30.425Z,33.70
2023-04-17T00:36:00.010Z,31.57
2023-04-17T00:38:28.211Z,33.10
2023-04-17T00:40:56.639Z,31.97
2023-04-17T00:43:24.786Z,31.10
2023-04-17T00:45:54.730Z,32.10
2023-04-17T00:48:24.554Z,31.40
2023-04-17T00:50:53.812Z,32.73
2023-04-17T00:53:23.843Z,33.57
2023-04-17T00:55:53.077Z,34.00
2023-04-17T00:58:21.594Z,32.00
2023-04-17T01:00:50.787Z,32.17
2023-04-17T01:03:19.135Z,32.80
2023-04-17T01:05:51.029Z,31.93
2023-04-17T01:08:19.773Z,32.30
2023-04-17T01:10:49.961Z,32.87
2023-04-17T01:13:18.314Z,32.77
2023-04-17T01:15:47.221Z,31.97
2023-04-17T01:18:16.471Z,32.03
2023-04-17T01:20:44.599Z,32.07
2023-04-17T01:23:13.028Z,30.77
2023-04-17T01:25:42.643Z,30.90
2023-04-17T01:28:11.502Z,31.40
2023-04-17T01:30:39.773Z,31.90
2023-04-17T01:33:09.792Z,31.97
2023-04-17T01:35:38.431Z,32.00
2023-04-17T01:38:06.567Z,32.77
2023-04-17T01:40:34.778Z,33.23
2023-04-17T01:43:04.335Z,30.50
2023-04-17T01:45:32.407Z,29.37
2023-04-17T01:48:01.329Z,29.03
2023-04-17T01:50:29.525Z,30.63
2023-04-17T01:52:57.628Z,31.50
2023-04-17T01:55:25.737Z,31.97
2023-04-17T01:57:54.173Z,31.77
2023-04-17T02:00:24.049Z,33.37
2023-04-17T02:02:52.577Z,30.70
2023-04-17T02:05:21.114Z,33.30
2023-04-17T02:07:51.452Z,33.22
2023-04-17T02:10:20.130Z,30.27
2023-04-17T02:12:48.238Z,32.70
2023-04-17T02:15:16.627Z,33.17
2023-04-17T02:17:47.395Z,31.90
2023-04-17T02:20:15.530Z,32.87
2023-04-17T02:22:43.624Z,32.67
2023-04-17T02:25:11.698Z,34.40
2023-04-17T02:27:39.875Z,33.30
2023-04-17T02:30:09.890Z,32.50
2023-04-17T02:32:38.176Z,34.63
2023-04-17T02:35:09.730Z,32.70
2023-04-17T02:37:38.229Z,34.40
2023-04-17T02:40:08.132Z,34.00
2023-04-17T02:42:36.314Z,35.20
2023-04-17T02:45:05.307Z,33.03
2023-04-17T02:47:33.528Z,34.40
2023-04-17T02:50:03.025Z,35.87
2023-04-17T02:52:37.905Z,34.97
2023-04-17T02:55:07.113Z,33.77
2023-04-17T02:57:35.755Z,34.43
2023-04-17T03:00:07.905Z,38.20
2023-04-17T03:02:36.724Z,36.30
2023-04-17T03:05:05.461Z,35.50
2023-04-17T03:07:33.826Z,37.50
2023-04-17T03:10:03.468Z,36.00
2023-04-17T03:12:32.659Z,35.13
2023-04-17T03:15:02.416Z,35.73
2023-04-17T03:17:30.768Z,35.40
2023-04-17T03:19:59.297Z,34.43
2023-04-17T03:22:27.517Z,34.10
2023-04-17T03:24:55.748Z,34.00
2023-04-17T03:27:28.107Z,33.40
2023-04-17T03:29:56.762Z,35.97
2023-04-17T03:32:26.899Z,37.30
2023-04-17T03:34:55.036Z,37.93
2023-04-17T03:37:23.128Z,37.63
2023-04-17T03:39:51.378Z,37.10
2023-04-17T03:42:19.571Z,38.43
2023-04-17T03:44:49.045Z,38.63
2023-04-17T03:47:17.152Z,38.30
2023-04-17T03:49:45.274Z,39.30
2023-04-17T03:52:14.487Z,28.53
2023-04-17T03:54:43.428Z,37.10
2023-04-17T03:57:13.988Z,38.13
2023-04-17T03:59:42.226Z,38.40
2023-04-17T04:02:12.633Z,36.23
2023-04-17T04:04:41.433Z,36.67
2023-04-17T04:07:16.192Z,37.43
2023-04-17T04:09:44.435Z,39.67
2023-04-17T04:12:12.872Z,36.30
2023-04-17T04:14:43.712Z,38.63
2023-04-17T04:17:13.931Z,38.80
2023-04-17T04:19:43.495Z,38.97
2023-04-17T04:22:13.593Z,38.10
2023-04-17T04:24:53.635Z,36.77
2023-04-17T04:27:27.768Z,37.73
2023-04-17T04:29:58.693Z,37.50
2023-04-17T04:32:29.669Z,39.83
2023-04-17T04:34:58.625Z,37.70
2023-04-17T04:37:29.841Z,38.83
2023-04-17T04:40:10.218Z,39.70
2023-04-17T04:42:42.064Z,39.10
2023-04-17T04:45:19.857Z,40.10
2023-04-17T04:47:49.452Z,39.50
2023-04-17T04:50:17.865Z,39.07
2023-04-17T04:52:46.149Z,38.57
2023-04-17T04:55:26.868Z,40.07
2023-04-17T04:57:57.849Z,40.00
2023-04-17T05:00:27.164Z,38.93
2023-04-17T05:02:59.871Z,40.70
2023-04-17T05:05:30.593Z,39.10
2023-04-17T05:07:59.555Z,41.00
2023-04-17T05:10:32.145Z,38.07
2023-04-17T05:13:03.191Z,39.63
2023-04-17T05:15:31.348Z,39.63
2023-04-17T05:18:01.260Z,38.70
2023-04-17T05:20:32.030Z,38.30
2023-04-17T05:23:00.394Z,39.47
2023-04-17T05:25:28.579Z,39.37
2023-04-17T05:27:58.533Z,39.23
2023-04-17T05:30:26.692Z,39.33
2023-04-17T05:33:07.931Z,38.77
2023-04-17T05:35:44.718Z,39.60
2023-04-17T05:38:14.477Z,40.63
2023-04-17T05:40:42.674Z,38.60
2023-04-17T05:43:13.235Z,38.80
2023-04-17T05:45:42.588Z,39.37
2023-04-17T05:48:12.261Z,41.83
2023-04-17T05:50:40.582Z,43.97
2023-04-17T05:53:09.496Z,43.83
2023-04-17T05:55:45.138Z,44.10
2023-04-17T05:58:23.194Z,40.37
2023-04-17T06:00:54.313Z,41.47
2023-04-17T06:03:24.318Z,40.87
2023-04-17T06:06:01.434Z,43.07
2023-04-17T06:08:29.819Z,42.80
2023-04-17T06:10:58.058Z,42.30
2023-04-17T06:13:26.473Z,43.63
2023-04-17T06:15:55.247Z,40.00
2023-04-17T06:18:24.907Z,41.77
2023-04-17T06:20:53.032Z,41.97
2023-04-17T06:23:21.681Z,42.50
2023-04-17T06:25:50.592Z,44.07
2023-04-17T06:28:19.873Z,44.83
2023-04-17T06:30:52.125Z,45.27
2023-04-17T06:33:21.096Z,43.90
2023-04-17T06:35:50.781Z,42.63
2023-04-17T06:38:36.135Z,43.77
2023-04-17T06:41:04.305Z,45.07
2023-04-17T06:43:32.413Z,44.00
2023-04-17T06:46:11.921Z,44.80
2023-04-17T06:48:40.241Z,43.43
2023-04-17T06:51:09.759Z,43.20
2023-04-17T06:53:38.049Z,46.70
2023-04-17T06:56:07.432Z,46.20
2023-04-17T06:58:42.241Z,47.03
2023-04-17T07:01:10.300Z,46.63
2023-04-17T07:03:39.688Z,45.00
2023-04-17T07:06:09.652Z,46.37
2023-04-17T07:08:37.749Z,46.47
2023-04-17T07:11:06.160Z,47.47
2023-04-17T07:13:34.406Z,46.67
2023-04-17T07:16:03.682Z,45.87
2023-04-17T07:18:32.440Z,45.17
2023-04-17T07:21:01.410Z,43.67
2023-04-17T07:23:30.868Z,45.37
2023-04-17T07:25:58.985Z,44.03
2023-04-17T07:28:27.051Z,45.50
2023-04-17T07:30:58.116Z,43.67
2023-04-17T07:33:26.539Z,44.60
2023-04-17T07:35:54.718Z,42.30
2023-04-17T07:38:23.014Z,44.70
2023-04-17T07:40:52.569Z,43.57
2023-04-17T07:43:20.628Z,45.00
2023-04-17T07:45:49.696Z,43.13
2023-04-17T07:48:18.777Z,44.00
2023-04-17T07:50:47.161Z,44.20
2023-04-17T07:53:15.378Z,45.70
2023-04-17T07:55:43.445Z,45.30
2023-04-17T07:58:13.443Z,43.47
2023-04-17T08:00:42.850Z,43.10
2023-04-17T08:03:11.308Z,41.67
2023-04-17T08:05:39.711Z,40.57
2023-04-17T08:08:07.877Z,41.43
2023-04-17T08:10:36.111Z,40.20
2023-04-17T08:13:04.157Z,41.43
2023-04-17T08:15:33.724Z,43.23
2023-04-17T08:18:02.068Z,41.57
2023-04-17T08:20:30.329Z,39.60
2023-04-17T08:22:58.520Z,40.30
2023-04-17T08:25:26.771Z,38.20
2023-04-17T08:27:54.979Z,37.50
2023-04-17T08:30:23.333Z,37.70
2023-04-17T08:32:52.968Z,37.57
2023-04-17T08:35:21.260Z,37.00
2023-04-17T08:37:49.369Z,37.80
2023-04-17T08:40:18.827Z,34.70
2023-04-17T08:42:49.614Z,32.17
2023-04-17T08:45:18.424Z,33.23
2023-04-17T08:47:46.820Z,31.27
2023-04-17T08:50:18.395Z,31.57
2023-04-17T08:52:47.616Z,31.67
2023-04-17T08:55:18.657Z,32.83
2023-04-17T08:57:57.554Z,30.10
2023-04-17T09:00:27.266Z,29.27
2023-04-17T09:02:57.265Z,28.73
2023-04-17T09:05:30.330Z,28.53
2023-04-17T09:08:11.277Z,28.00
2023-04-17T09:10:40.925Z,27.40
2023-04-17T09:13:09.824Z,24.37
2023-04-17T09:15:38.332Z,22.20
2023-04-17T09:18:06.576Z,19.97
2023-04-17T09:20:50.803Z,20.77
2023-04-17T09:23:19.378Z,22.80
2023-04-17T09:25:47.584Z,21.10
2023-04-17T09:28:16.686Z,20.70
2023-04-17T09:30:44.966Z,20.90
2023-04-17T09:33:13.092Z,20.97
2023-04-17T09:35:42.707Z,20.93
2023-04-17T09:38:11.260Z,20.13
2023-04-17T09:40:40.985Z,20.37
2023-04-17T09:43:10.839Z,19.10
2023-04-17T09:45:42.956Z,19.67
2023-04-17T09:48:12.860Z,20.43
2023-04-17T09:50:42.625Z,20.40
2023-04-17T09:53:11.376Z,19.53
2023-04-17T09:55:43.547Z,17.43
2023-04-17T09:58:12.249Z,16.93
2023-04-17T10:00:42.917Z,17.00
2023-04-17T10:03:11.335Z,15.73
2023-04-17T10:05:39.876Z,14.40
2023-04-17T10:08:09.617Z,15.07
2023-04-17T10:10:37.774Z,15.10
2023-04-17T10:13:12.498Z,15.40
2023-04-17T10:15:41.104Z,15.50
2023-04-17T10:18:23.019Z,16.07
2023-04-17T10:20:53.644Z,16.03
2023-04-17T10:23:33.913Z,15.63
2023-04-17T10:26:41.898Z,12.37
2023-04-17T10:29:10.380Z,11.10
2023-04-17T10:32:21.714Z,12.57
2023-04-17T10:34:50.145Z,13.00
2023-04-17T10:37:18.992Z,13.00
2023-04-17T10:40:02.374Z,12.70
2023-04-17T10:42:32.777Z,13.30
2023-04-17T10:45:04.887Z,12.57
2023-04-17T10:47:34.155Z,13.53
2023-04-17T10:50:04.344Z,11.53
2023-04-17T10:52:44.885Z,13.10
2023-04-17T10:55:17.417Z,13.03
2023-04-17T10:58:00.704Z,14.23
2023-04-17T11:00:32.374Z,14.20
2023-04-17T11:03:01.794Z,15.07
2023-04-17T11:05:31.220Z,15.60
2023-04-17T11:07:59.687Z,16.13
2023-04-17T11:10:29.246Z,15.13
2023-04-17T11:12:57.442Z,15.73
2023-04-17T11:15:29.619Z,14.07
2023-04-17T11:17:58.943Z,15.50
2023-04-17T11:20:29.860Z,15.30
2023-04-17T11:23:01.469Z,14.47
2023-04-17T11:25:33.584Z,15.53
2023-04-17T11:28:03.958Z,16.00
2023-04-17T11:30:34.375Z,14.80
2023-04-17T11:33:03.310Z,15.50
2023-04-17T11:35:33.058Z,15.60
2023-04-17T11:38:12.469Z,14.83
2023-04-17T11:40:50.347Z,13.30
2023-04-17T11:43:19.299Z,14.60
2023-04-17T11:45:48.846Z,13.57
2023-04-17T11:48:20.960Z,13.90
2023-04-17T11:50:49.119Z,13.00
2023-04-17T11:53:18.200Z,12.60
2023-04-17T11:55:48.588Z,12.07
2023-04-17T11:58:16.912Z,12.87
2023-04-17T12:00:45.212Z,12.60
2023-04-17T12:03:34.857Z,11.43
2023-04-17T12:06:04.536Z,11.10
2023-04-17T12:08:32.727Z,11.50
2023-04-17T12:11:02.310Z,12.17
2023-04-17T12:13:32.590Z,12.47
2023-04-17T12:16:00.749Z,10.40
2023-04-17T12:18:28.870Z,11.17
2023-04-17T12:20:57.155Z,12.40
2023-04-17T12:23:25.269Z,11.60
2023-04-17T12:25:53.448Z,11.50
2023-04-17T12:28:23.162Z,10.87
2023-04-17T12:30:51.262Z,10.13
2023-04-17T12:33:19.353Z,11.00
2023-04-17T12:35:47.509Z,11.30
2023-04-17T12:38:15.755Z,11.37
2023-04-17T12:40:45.308Z,11.47
2023-04-17T12:43:14.191Z,9.93
2023-04-17T12:45:45.685Z,9.63
2023-04-17T12:48:15.322Z,10.67
2023-04-17T12:50:44.412Z,10.50
2023-04-17T12:53:13.851Z,9.53
2023-04-17T12:55:43.695Z,9.73
2023-04-17T12:58:14.174Z,9.20
2023-04-17T13:00:44.673Z,8.57
2023-04-17T13:03:13.608Z,8.63
2023-04-17T13:05:42.010Z,8.40
2023-04-17T13:08:14.811Z,8.33
2023-04-17T13:10:43.150Z,8.40
2023-04-17T13:13:11.574Z,8.33
2023-04-17T13:15:39.719Z,7.87
2023-04-17T13:18:10.503Z,7.20
2023-04-17T13:20:38.889Z,8.17
2023-04-17T13:23:07.021Z,8.53
2023-04-17T13:25:35.496Z,7.80
2023-04-17T13:28:03.825Z,10.23
2023-04-17T13:30:33.543Z,9.27
2023-04-17T13:33:01.810Z,9.20
2023-04-17T13:35:31.331Z,8.57
2023-04-17T13:38:02.312Z,8.67
2023-04-17T13:40:30.749Z,7.97
2023-04-17T13:42:58.835Z,7.63
2023-04-17T13:45:27.001Z,8.70
2023-04-17T13:47:55.076Z,8.63
2023-04-17T13:50:23.358Z,8.70
2023-04-17T13:52:52.813Z,8.57
2023-04-17T13:55:21.090Z,8.80
2023-04-17T13:57:54.538Z,9.27
2023-04-17T14:00:23.180Z,8.67
2023-04-17T14:02:51.678Z,8.90
2023-04-17T14:05:19.970Z,8.83
2023-04-17T14:07:48.043Z,8.43
2023-04-17T14:10:17.605Z,9.87
2023-04-17T14:12:45.709Z,10.27
2023-04-17T14:15:14.218Z,9.93
2023-04-17T14:17:43.373Z,9.30
2023-04-17T14:20:12.683Z,10.30
2023-04-17T14:22:40.772Z,9.50
2023-04-17T14:25:09.475Z,11.43
2023-04-17T14:27:39.398Z,11.37
2023-04-17T14:30:09.227Z,11.37
2023-04-17T14:32:38.407Z,10.57
2023-04-17T14:35:07.630Z,11.13
2023-04-17T14:37:35.778Z,10.50
2023-04-17T14:40:04.810Z,11.10
2023-04-17T14:42:40.653Z,11.10
2023-04-17T14:45:16.926Z,10.57
2023-04-17T14:47:45.164Z,8.47
2023-04-17T14:50:13.565Z,9.70
2023-04-17T14:52:41.843Z,10.27
2023-04-17T14:55:11.284Z,10.63
2023-04-17T14:57:40.103Z,10.57
2023-04-17T15:00:09.736Z,9.63
2023-04-17T15:02:39.520Z,9.63
2023-04-17T15:05:08.709Z,9.93
2023-04-17T15:07:36.912Z,9.80
2023-04-17T15:10:06.074Z,9.87
2023-04-17T15:12:34.288Z,11.77
2023-04-17T15:15:02.419Z,10.90
2023-04-17T15:17:30.858Z,15.00
2023-04-17T15:20:01.157Z,12.60
2023-04-17T15:22:29.388Z,11.80
2023-04-17T15:24:57.533Z,13.13
2023-04-17T15:27:25.690Z,11.50
2023-04-17T15:29:53.780Z,12.77
2023-04-17T15:32:22.035Z,12.07
2023-04-17T15:34:50.443Z,11.80
2023-04-17T15:37:20.162Z,11.13
2023-04-17T15:39:48.232Z,11.73
2023-04-17T15:42:16.457Z,12.77
2023-04-17T15:44:44.935Z,10.90
2023-04-17T15:47:14.897Z,12.40
2023-04-17T15:49:43.290Z,12.00
2023-04-17T15:52:11.495Z,11.40
2023-04-17T15:54:41.119Z,11.70
2023-04-17T15:57:09.406Z,11.10
2023-04-17T15:59:37.805Z,11.10
2023-04-17T16:02:09.828Z,11.43
2023-04-17T16:04:39.543Z,12.70
2023-04-17T16:07:07.835Z,11.57
2023-04-17T16:09:35.952Z,10.93
2023-04-17T16:12:08.561Z,11.93
2023-04-17T16:14:37.043Z,11.27
2023-04-17T16:17:05.716Z,11.73
2023-04-17T16:19:33.958Z,13.63
2023-04-17T16:22:03.210Z,12.07
2023-04-17T16:24:31.415Z,11.60
2023-04-17T16:27:01.532Z,10.13
2023-04-17T16:29:31.042Z,11.10
2023-04-17T16:32:14.869Z,12.00
2023-04-17T16:34:58.766Z,10.70
2023-04-17T16:37:27.028Z,10.43
2023-04-17T16:39:55.428Z,10.50
2023-04-17T16:42:24.204Z,10.20
2023-04-17T16:44:53.622Z,11.07
2023-04-17T16:47:21.859Z,11.30
2023-04-17T16:49:50.036Z,11.83
2023-04-17T16:52:18.170Z,10.53
2023-04-17T16:54:46.278Z,10.73
2023-04-17T16:57:18.281Z,10.10
2023-04-17T17:00:08.713Z,10.60
2023-04-17T17:02:39.313Z,10.70
2023-04-17T17:05:09.158Z,10.30
2023-04-17T17:08:19.374Z,10.40
2023-04-17T17:10:49.707Z,10.57
2023-04-17T17:13:17.972Z,10.17
2023-04-17T17:15:46.100Z,9.63
2023-04-17T17:18:15.827Z,10.23
2023-04-17T17:20:43.909Z,9.43
2023-04-17T17:23:12.249Z,10.10
2023-04-17T17:25:40.280Z,9.50
2023-04-17T17:28:08.370Z,8.83
2023-04-17T17:30:36.484Z,9.10
2023-04-17T17:33:05.060Z,8.77
2023-04-17T17:35:34.586Z,8.50
2023-04-17T17:38:02.690Z,8.60
2023-04-17T17:40:30.795Z,8.60
2023-04-17T17:42:58.903Z,8.40
2023-04-17T17:45:27.007Z,8.53
2023-04-17T17:47:55.462Z,8.40
2023-04-17T17:50:23.534Z,8.93
2023-04-17T17:52:52.920Z,8.97
2023-04-17T17:55:21.180Z,8.53
2023-04-17T17:57:50.558Z,9.17
2023-04-17T18:00:19.263Z,9.57
2023-04-17T18:02:47.670Z,9.90
2023-04-17T18:05:16.017Z,9.47
2023-04-17T18:07:44.055Z,10.00
2023-04-17T18:10:13.807Z,10.17
2023-04-17T18:12:41.878Z,10.83
2023-04-17T18:15:11.092Z,9.60
2023-04-17T18:17:39.265Z,10.93
2023-04-17T18:20:08.753Z,10.27
2023-04-17T18:22:38.408Z,13.00
2023-04-17T18:25:07.723Z,11.90
2023-04-17T18:27:37.871Z,11.50
2023-04-17T18:30:06.864Z,11.63
2023-04-17T18:32:35.359Z,12.27
2023-04-17T18:35:05.772Z,11.37
2023-04-17T18:37:33.814Z,10.97
2023-04-17T18:40:02.046Z,11.97
2023-04-17T18:42:30.150Z,11.30
2023-04-17T18:44:59.694Z,12.97
2023-04-17T18:47:27.931Z,12.10
2023-04-17T18:49:56.110Z,12.20
2023-04-17T18:52:24.288Z,12.73
2023-04-17T18:54:52.314Z,13.73
2023-04-17T18:57:20.384Z,11.90
2023-04-17T18:59:48.433Z,12.60
2023-04-17T19:02:17.939Z,12.30
2023-04-17T19:04:46.243Z,12.87
2023-04-17T19:07:14.854Z,12.80
2023-04-17T19:09:42.953Z,12.53
2023-04-17T19:12:11.226Z,11.73
2023-04-17T19:14:39.326Z,11.37
2023-04-17T19:17:07.450Z,11.40
2023-04-17T19:19:37.011Z,12.43
2023-04-17T19:22:05.117Z,12.43
2023-04-17T19:24:33.130Z,12.33
2023-04-17T19:27:01.988Z,11.90
2023-04-17T19:29:30.189Z,12.40
2023-04-17T19:31:58.348Z,11.77
2023-04-17T19:34:26.601Z,12.30
2023-04-17T19:36:56.032Z,12.50
2023-04-17T19:39:24.147Z,11.00
2023-04-17T19:41:52.216Z,12.10
2023-04-17T19:44:20.515Z,10.20
2023-04-17T19:46:48.840Z,10.57
2023-04-17T19:49:16.996Z,11.20
2023-04-17T19:51:45.167Z,11.97
2023-04-17T19:54:15.882Z,10.97
2023-04-17T19:56:44.031Z,11.73
2023-04-17T19:59:13.587Z,11.47
2023-04-17T20:01:43.729Z,12.13
2023-04-17T20:04:12.532Z,11.23
2023-04-17T20:06:40.916Z,11.20
2023-04-17T20:09:09.129Z,10.70
2023-04-17T20:11:38.660Z,11.00
2023-04-17T20:14:06.724Z,11.00
2023-04-17T20:16:34.934Z,11.00
2023-04-17T20:19:03.152Z,11.90
2023-04-17T20:21:31.443Z,11.70
2023-04-17T20:24:00.487Z,11.87
2023-04-17T20:26:28.659Z,11.87
2023-04-17T20:28:58.162Z,12.77
2023-04-17T20:31:26.435Z,12.57
2023-04-17T20:33:54.990Z,12.10
2023-04-17T20:36:23.339Z,12.30
2023-04-17T20:38:52.749Z,12.67
2023-04-17T20:41:21.125Z,12.80
2023-04-17T20:43:59.342Z,12.60
2023-04-17T20:46:27.734Z,11.67
2023-04-17T20:48:56.040Z,12.40
2023-04-17T20:51:26.401Z,11.97
2023-04-17T20:53:55.294Z,11.87
2023-04-17T20:56:24.656Z,10.90
2023-04-17T20:58:52.804Z,11.30
2023-04-17T21:01:22.339Z,12.30
2023-04-17T21:03:50.725Z,11.23
2023-04-17T21:06:21.106Z,11.50
2023-04-17T21:08:49.470Z,11.23
2023-04-17T21:11:17.638Z,11.37
2023-04-17T21:13:45.876Z,11.00
2023-04-17T21:16:14.234Z,11.10
2023-04-17T21:18:43.731Z,11.97
2023-04-17T21:21:12.014Z,12.20
2023-04-17T21:23:40.275Z,11.53
2023-04-17T21:26:08.393Z,11.70
2023-04-17T21:28:37.616Z,12.00
2023-04-17T21:31:08.485Z,12.10
2023-04-17T21:33:36.637Z,11.67
2023-04-17T21:36:06.639Z,12.37
2023-04-17T21:38:34.771Z,11.57
2023-04-17T21:41:02.927Z,11.63
2023-04-17T21:43:31.818Z,12.00
2023-04-17T21:46:00.267Z,12.90
2023-04-17T21:48:28.737Z,11.93
2023-04-17T21:51:02.446Z,12.37
2023-04-17T21:53:32.002Z,12.47
2023-04-17T21:56:00.611Z,12.87
2023-04-17T21:58:28.671Z,12.40
2023-04-17T22:00:56.962Z,12.50
2023-04-17T22:03:25.173Z,12.33
2023-04-17T22:05:54.076Z,12.93
2023-04-17T22:08:22.182Z,13.10
2023-04-17T22:10:52.677Z,12.50
2023-04-17T22:13:20.827Z,12.80
2023-04-17T22:15:49.636Z,12.13
2023-04-17T22:18:17.728Z,12.90
2023-04-17T22:20:46.011Z,12.07
2023-04-17T22:23:14.101Z,13.60
2023-04-17T22:25:42.159Z,13.50
2023-04-17T22:28:11.679Z,14.20
2023-04-17T22:30:39.903Z,13.47
2023-04-17T22:33:08.548Z,13.93
2023-04-17T22:35:36.797Z,13.90
2023-04-17T22:38:04.919Z,14.00
2023-04-17T22:40:33.126Z,13.87
2023-04-17T22:43:01.261Z,14.60
2023-04-17T22:45:30.741Z,13.20
2023-04-17T22:47:58.939Z,14.50
2023-04-17T22:50:29.493Z,13.20
2023-04-17T22:52:57.790Z,13.77
2023-04-17T22:55:25.939Z,14.03
2023-04-17T22:57:54.049Z,13.53
2023-04-17T23:00:22.318Z,13.90
2023-04-17T23:02:51.844Z,14.03
2023-04-17T23:05:20.194Z,13.47
2023-04-17T23:07:48.397Z,14.83
2023-04-17T23:10:16.737Z,13.60
2023-04-17T23:12:44.809Z,14.23
2023-04-17T23:15:13.368Z,13.70
2023-04-17T23:17:41.534Z,14.90
2023-04-17T23:20:11.645Z,13.80
2023-04-17T23:22:39.796Z,13.90
2023-04-17T23:25:09.014Z,14.70
2023-04-17T23:27:37.158Z,14.47
2023-04-17T23:30:06.144Z,13.23
2023-04-17T23:32:34.461Z,13.97
2023-04-17T23:35:02.853Z,14.50
2023-04-17T23:37:32.370Z,14.30
2023-04-17T23:40:01.348Z,14.03
2023-04-17T23:42:29.476Z,13.63
2023-04-17T23:44:57.788Z,14.60
2023-04-17T23:47:26.048Z,14.57
2023-04-17T23:49:54.317Z,13.20
2023-04-17T23:52:22.536Z,13.40
2023-04-17T23:54:52.093Z,15.00
2023-04-17T23:57:20.307Z,15.33
2023-04-17T23:59:48.451Z,16.17
